Time;durP1;ratioP1;P1;durP2;ratioP2;P2;SDS_P1;SDS_P2;PMS_P1;PMS_P2;Temp;Humidity;BMP_temperature;BMP_pressure;BME280_temperature;BME280_humidity;BME280_pressure;Samples;Min_cycle;Max_cycle;Signal;HPM_P1;HPM_P2
2023/10/08 00:01:21;;;;;;;8.18;2.90;;;;;;;16.57;100.00;102348.22;5244887;28;20012;-69
2023/10/08 00:03:57;;;;;;;12.15;3.30;;;;;;;16.55;100.00;102351.06;5251319;28;20211;-69
2023/10/08 00:06:28;;;;;;;9.18;3.55;;;;;;;16.55;100.00;102344.81;5248342;28;20024;-69
2023/10/08 00:09:00;;;;;;;7.25;3.00;;;;;;;16.51;100.00;102351.56;5248206;28;20368;-69
2023/10/08 00:11:30;;;;;;;8.02;2.92;;;;;;;16.48;100.00;102360.06;5249980;28;20090;-69
2023/10/08 00:14:01;;;;;;;7.90;2.95;;;;;;;16.41;100.00;102357.16;5250477;28;20028;-69
2023/10/08 00:16:33;;;;;;;12.20;3.40;;;;;;;16.36;100.00;102355.97;5247806;28;20373;-69
2023/10/08 00:19:08;;;;;;;11.23;3.15;;;;;;;16.34;100.00;102358.00;5249960;28;20021;-69
2023/10/08 00:21:39;;;;;;;9.32;2.88;;;;;;;16.25;100.00;102355.28;5248602;28;20028;-70
2023/10/08 00:24:10;;;;;;;8.00;3.40;;;;;;;16.23;100.00;102368.16;5241783;28;20016;-69
2023/10/08 00:26:40;;;;;;;8.05;2.97;;;;;;;16.16;100.00;102371.69;5242667;28;20089;-69
2023/10/08 00:29:21;;;;;;;8.18;3.33;;;;;;;16.11;100.00;102374.88;5248049;28;20021;-69
2023/10/08 00:31:52;;;;;;;6.40;3.10;;;;;;;16.02;100.00;102379.44;5244725;28;20429;-69
2023/10/08 00:34:24;;;;;;;9.93;3.45;;;;;;;15.96;100.00;102371.13;5249260;28;20036;-69
2023/10/08 00:36:55;;;;;;;8.50;3.28;;;;;;;15.92;100.00;102372.47;5254707;28;20070;-69
2023/10/08 00:39:26;;;;;;;8.23;2.72;;;;;;;15.85;100.00;102369.56;5246686;28;20103;-69
2023/10/08 00:41:58;;;;;;;7.90;3.00;;;;;;;15.81;100.00;102370.91;5248031;28;20546;-69
2023/10/08 00:44:30;;;;;;;8.27;3.10;;;;;;;15.79;100.00;102378.34;5247847;28;20111;-69
2023/10/08 00:47:01;;;;;;;8.80;3.08;;;;;;;15.75;100.00;102374.25;5249026;28;20028;-69
2023/10/08 00:52:26;;;;;;;6.80;3.03;;;;;;;15.65;100.00;102377.09;5247354;28;20473;-69
2023/10/08 00:57:29;;;;;;;8.52;3.22;;;;;;;15.55;100.00;102381.75;5246897;28;20016;-69
2023/10/08 01:00:00;;;;;;;8.75;3.00;;;;;;;15.43;100.00;102370.38;5250178;28;20085;-69
2023/10/08 01:02:48;;;;;;;7.43;3.03;;;;;;;15.41;100.00;102375.13;5246923;28;20020;-69
2023/10/08 01:05:24;;;;;;;10.80;3.55;;;;;;;15.37;100.00;102378.31;5245657;28;20048;-69
2023/10/08 01:07:56;;;;;;;6.38;2.60;;;;;;;15.32;100.00;102380.63;5249527;28;20149;-69
2023/10/08 01:10:28;;;;;;;5.78;2.60;;;;;;;15.27;100.00;102379.25;5246883;28;20033;-69
2023/10/08 01:13:05;;;;;;;13.10;3.08;;;;;;;15.21;100.00;102379.03;5246527;28;20028;-69
2023/10/08 01:15:51;;;;;;;8.30;3.35;;;;;;;15.18;100.00;102366.69;5246851;28;20016;-69
2023/10/08 01:18:32;;;;;;;9.15;3.05;;;;;;;15.14;100.00;102373.41;5245064;28;20036;-69
2023/10/08 01:21:13;;;;;;;10.30;2.83;;;;;;;15.11;100.00;102368.34;5244826;28;20237;-69
2023/10/08 01:23:47;;;;;;;8.68;3.72;;;;;;;15.11;100.00;102368.34;5246183;28;20039;-69
2023/10/08 01:26:22;;;;;;;7.82;3.33;;;;;;;15.08;100.00;102374.06;5247392;28;20058;-69
2023/10/08 01:28:54;;;;;;;12.80;3.72;;;;;;;15.08;100.00;102379.47;5204115;28;1209930;-69
2023/10/08 01:31:26;;;;;;;8.02;3.33;;;;;;;15.06;100.00;102367.09;5247524;28;20031;-69
2023/10/08 01:33:57;;;;;;;13.93;3.47;;;;;;;15.02;100.00;102367.44;5249975;28;20488;-69
2023/10/08 01:36:28;;;;;;;11.13;3.80;;;;;;;14.95;100.00;102360.94;5245749;28;20103;-69
2023/10/08 01:39:01;;;;;;;10.35;3.17;;;;;;;14.96;100.00;102362.66;5246749;28;20089;-69
2023/10/08 01:41:31;;;;;;;8.63;3.35;;;;;;;14.97;100.00;102358.97;5244448;28;20087;-69
2023/10/08 01:44:06;;;;;;;10.48;4.00;;;;;;;14.96;100.00;102348.28;5251583;28;20123;-68
2023/10/08 01:46:37;;;;;;;15.52;3.55;;;;;;;14.97;100.00;102347.31;5248747;28;20028;-69
2023/10/08 01:49:13;;;;;;;11.18;3.00;;;;;;;14.97;100.00;102350.00;5247177;28;20028;-69
2023/10/08 01:51:46;;;;;;;8.30;3.40;;;;;;;14.99;100.00;102350.69;5251667;28;20055;-69
2023/10/08 01:54:20;;;;;;;8.43;3.08;;;;;;;15.02;100.00;102342.28;5245489;28;20035;-69
2023/10/08 01:56:51;;;;;;;10.13;3.45;;;;;;;15.01;100.00;102340.59;5249981;28;20028;-69
2023/10/08 01:59:23;;;;;;;11.45;3.00;;;;;;;14.98;100.00;102340.88;5248508;28;20493;-69
2023/10/08 02:01:57;;;;;;;8.60;3.30;;;;;;;14.96;100.00;102343.75;5249240;28;20024;-69
2023/10/08 02:04:27;;;;;;;8.27;3.25;;;;;;;14.94;100.00;102344.91;5248425;28;20052;-70
2023/10/08 02:06:59;;;;;;;10.25;3.10;;;;;;;14.93;100.00;102340.50;5248840;28;20020;-69
2023/10/08 02:09:33;;;;;;;11.05;3.63;;;;;;;14.92;100.00;102341.53;5247270;28;20020;-69
2023/10/08 02:12:03;;;;;;;6.70;3.28;;;;;;;14.90;100.00;102340.81;5248820;28;20125;-69
2023/10/08 02:14:35;;;;;;;7.57;3.17;;;;;;;14.86;100.00;102339.44;5246330;28;20040;-69
2023/10/08 02:17:06;;;;;;;7.82;3.20;;;;;;;14.84;100.00;102330.66;5247141;28;20089;-69
2023/10/08 02:19:37;;;;;;;9.95;3.13;;;;;;;14.84;100.00;102330.66;5247642;28;20446;-69
2023/10/08 02:22:09;;;;;;;13.93;3.35;;;;;;;14.83;100.00;102339.78;5245353;28;20020;-69
2023/10/08 02:24:42;;;;;;;12.38;3.72;;;;;;;14.82;100.00;102338.09;5249828;28;20547;-69
2023/10/08 02:27:15;;;;;;;10.10;3.50;;;;;;;14.82;100.00;102335.38;5248283;28;20488;-69
2023/10/08 02:29:45;;;;;;;6.95;3.50;;;;;;;14.82;100.00;102344.31;5246438;28;20020;-69
2023/10/08 02:32:16;;;;;;;7.43;2.97;;;;;;;14.84;100.00;102361.22;5244919;28;20401;-69
2023/10/08 02:34:46;;;;;;;8.70;3.60;;;;;;;14.85;100.00;102362.91;5246163;28;20035;-69
2023/10/08 02:37:19;;;;;;;8.77;3.20;;;;;;;14.86;100.00;102359.22;5247522;28;20044;-69
2023/10/08 02:39:49;;;;;;;8.00;3.20;;;;;;;14.81;100.00;102357.97;5249956;28;20124;-69
2023/10/08 02:42:22;;;;;;;11.48;3.53;;;;;;;14.80;100.00;102356.28;5247315;28;20416;-69
2023/10/08 02:44:53;;;;;;;9.23;4.13;;;;;;;14.81;100.00;102357.97;5249463;28;20497;-69
2023/10/08 02:47:24;;;;;;;11.55;3.15;;;;;;;14.78;100.00;102364.56;5249237;28;20043;-69
2023/10/08 02:49:54;;;;;;;7.10;3.33;;;;;;;14.77;100.00;102369.13;5248743;28;20023;-69
2023/10/08 02:52:26;;;;;;;10.00;3.40;;;;;;;14.78;100.00;102364.56;5247372;28;20164;-69
2023/10/08 02:54:56;;;;;;;9.88;3.75;;;;;;;14.77;100.00;102355.59;5247582;28;20035;-71
2023/10/08 02:57:29;;;;;;;9.45;3.53;;;;;;;14.77;100.00;102369.13;5245759;28;20069;-69
2023/10/08 03:00:03;;;;;;;7.93;3.70;;;;;;;14.73;100.00;102374.97;5249549;28;20032;-69
2023/10/08 03:02:39;;;;;;;12.43;3.23;;;;;;;14.69;100.00;102382.53;5241763;28;20029;-69
2023/10/08 03:05:13;;;;;;;9.48;3.42;;;;;;;14.68;100.00;102380.00;5250375;28;20576;-69
2023/10/08 03:07:43;;;;;;;8.80;3.15;;;;;;;14.66;100.00;102377.47;5246521;28;20020;-69
2023/10/08 03:10:22;;;;;;;10.60;3.53;;;;;;;14.66;100.00;102377.47;5243972;28;20028;-69
2023/10/08 03:12:52;;;;;;;10.95;3.55;;;;;;;14.65;100.00;102381.16;5249858;28;20032;-69
2023/10/08 03:15:30;;;;;;;10.38;3.47;;;;;;;14.65;100.00;102383.00;5243714;28;20077;-69
2023/10/08 03:18:09;;;;;;;10.27;3.80;;;;;;;14.65;100.00;102377.59;5246728;28;20028;-69
2023/10/08 03:20:42;;;;;;;6.95;3.25;;;;;;;14.63;100.00;102376.94;5243618;28;20359;-69
2023/10/08 03:23:33;;;;;;;6.55;3.40;;;;;;;14.59;100.00;102381.78;5247301;28;20514;-69
2023/10/08 03:26:10;;;;;;;13.50;3.63;;;;;;;14.53;100.00;102381.56;5250279;28;20028;-69
2023/10/08 03:28:41;;;;;;;13.10;3.30;;;;;;;14.47;100.00;102380.28;5246399;28;20214;-69
2023/10/08 03:31:16;;;;;;;7.03;3.47;;;;;;;14.40;100.00;102377.34;5249048;28;20095;-69
2023/10/08 03:33:51;;;;;;;8.70;3.63;;;;;;;14.33;100.00;102378.97;5249149;28;20028;-69
2023/10/08 03:36:29;;;;;;;10.20;3.60;;;;;;;14.25;100.00;102386.97;5247757;28;20040;-69
2023/10/08 03:39:10;;;;;;;7.85;3.58;;;;;;;14.19;100.00;102384.91;5250171;28;20046;-69
2023/10/08 03:41:41;;;;;;;8.15;4.07;;;;;;;14.10;100.00;102396.59;5244735;28;20029;-69
2023/10/08 03:44:12;;;;;;;7.05;3.25;;;;;;;14.02;100.00;102396.53;5250566;28;20401;-69
2023/10/08 03:46:43;;;;;;;13.13;3.67;;;;;;;13.96;100.00;102398.00;5249925;28;20537;-69
2023/10/08 03:51:52;;;;;;;9.65;3.95;;;;;;;13.94;100.00;102414.31;5252840;28;20451;-69
2023/10/08 03:54:29;;;;;;;6.68;3.08;;;;;;;13.91;100.00;102409.22;5247034;28;20283;-69
2023/10/08 03:57:01;;;;;;;7.30;3.55;;;;;;;13.84;100.00;102413.50;5250178;28;20031;-69
2023/10/08 03:59:31;;;;;;;11.40;3.55;;;;;;;13.79;100.00;102407.72;5247232;28;20024;-69
2023/10/08 04:02:21;;;;;;;7.22;3.40;;;;;;;13.74;100.00;102407.31;5243594;28;20435;-69
2023/10/08 04:04:55;;;;;;;7.88;3.20;;;;;;;13.71;100.00;102413.88;5248176;28;20093;-69
2023/10/08 04:12:43;;;;;;;9.60;3.55;;;;;;;13.62;100.00;102409.34;5246494;28;20094;-69
2023/10/08 04:15:16;;;;;;;9.52;3.28;;;;;;;13.61;100.00;102410.38;5244575;28;20024;-69
2023/10/08 04:17:50;;;;;;;12.48;3.80;;;;;;;13.58;100.00;102416.03;5251112;28;20078;-69
2023/10/08 04:20:33;;;;;;;8.85;3.53;;;;;;;13.56;100.00;102419.91;5245429;28;20039;-69
2023/10/08 04:23:05;;;;;;;7.53;3.47;;;;;;;13.54;100.00;102416.47;5250407;28;20369;-69
2023/10/08 04:25:36;;;;;;;10.50;4.10;;;;;;;13.53;100.00;102418.34;5252799;28;20119;-69
2023/10/08 04:28:06;;;;;;;9.95;3.25;;;;;;;13.51;100.00;102417.63;5251226;28;20036;-69
2023/10/08 04:30:38;;;;;;;6.30;3.42;;;;;;;13.45;100.00;102407.41;5252863;28;20108;-70
2023/10/08 04:33:12;;;;;;;8.30;4.18;;;;;;;13.43;100.00;102409.44;5252907;28;20036;-69
2023/10/08 04:35:55;;;;;;;8.93;3.75;;;;;;;13.38;100.00;102411.72;5253356;28;20032;-69
2023/10/08 04:38:28;;;;;;;10.98;3.90;;;;;;;13.36;100.00;102413.72;5251713;28;20020;-69
2023/10/08 04:41:01;;;;;;;10.50;3.65;;;;;;;13.36;100.00;102430.75;5254818;28;20055;-69
2023/10/08 04:43:32;;;;;;;9.10;3.55;;;;;;;13.36;100.00;102424.50;5252830;28;20458;-69
2023/10/08 04:48:52;;;;;;;10.63;4.15;;;;;;;13.28;100.00;102418.97;5253146;28;20111;-69
2023/10/08 04:51:23;;;;;;;9.25;3.53;;;;;;;13.18;100.00;102422.50;5251614;28;20032;-69
2023/10/08 04:53:55;;;;;;;8.18;4.18;;;;;;;13.10;100.00;102419.72;5253584;28;20024;-69
2023/10/08 04:56:28;;;;;;;8.57;4.05;;;;;;;13.10;100.00;102421.53;5253103;28;20108;-69
2023/10/08 04:58:58;;;;;;;9.57;3.50;;;;;;;13.09;100.00;102419.81;5254147;28;20077;-70
2023/10/08 05:01:38;;;;;;;9.00;3.63;;;;;;;13.05;100.00;102413.91;5252443;28;20048;-70
2023/10/08 05:04:23;;;;;;;8.88;4.22;;;;;;;13.02;100.00;102408.78;5251666;28;20410;-69
2023/10/08 05:07:03;;;;;;;8.63;3.90;;;;;;;12.99;100.00;102414.44;5254677;28;20107;-69
2023/10/08 05:09:45;;;;;;;15.60;4.55;;;;;;;12.97;100.00;102413.75;5248344;28;20435;-69
2023/10/08 05:12:34;;;;;;;7.60;3.95;;;;;;;12.96;100.00;102410.22;5251202;28;20076;-69
2023/10/08 05:23:32;;;;;;;9.80;4.13;;;;;;;12.91;100.00;102435.88;5241998;28;20104;-69
2023/10/08 05:29:00;;;;;;;8.57;3.70;;;;;;;12.88;100.00;102441.56;5247833;28;20112;-69
2023/10/08 05:34:22;;;;;;;9.15;4.13;;;;;;;12.82;100.00;102436.75;5252021;28;20031;-69
2023/10/08 05:37:15;;;;;;;10.18;4.15;;;;;;;12.78;100.00;102438.84;5245892;28;20035;-69
2023/10/08 05:39:55;;;;;;;8.50;4.22;;;;;;;12.74;100.00;102442.81;5251802;28;20055;-69
2023/10/08 05:45:35;;;;;;;10.02;4.63;;;;;;;12.80;100.00;102436.00;5252457;28;20028;-69
2023/10/08 05:48:14;;;;;;;13.90;4.38;;;;;;;12.88;100.00;102458.56;5253028;28;20755;-69
2023/10/08 05:50:57;;;;;;;10.30;4.20;;;;;;;13.03;100.00;102448.19;5246985;28;20498;-69
2023/10/08 05:53:43;;;;;;;10.43;4.32;;;;;;;13.13;100.00;102440.09;5250931;28;20103;-69
2023/10/08 05:56:40;;;;;;;;;;;;;;;13.16;100.00;102439.84;5249020;28;20119;-69
2023/10/08 05:59:18;;;;;;;;;;;;;;;13.11;100.00;102458.28;5254484;28;20307;-69
2023/10/08 06:01:58;;;;;;;7.47;3.85;;;;;;;13.12;100.00;102459.97;5258684;28;19928;-69
2023/10/08 06:04:53;;;;;;;10.80;3.92;;;;;;;13.14;100.00;102442.66;5250912;28;20053;-69
2023/10/08 06:07:33;;;;;;;12.68;4.82;;;;;;;13.14;100.00;102449.88;5246389;28;20036;-69
2023/10/08 06:10:13;;;;;;;11.82;4.07;;;;;;;13.13;100.00;102454.44;5241173;28;20030;-69
2023/10/08 06:12:49;;;;;;;10.35;4.53;;;;;;;13.23;100.00;102451.75;5252193;28;20024;-69
2023/10/08 06:15:37;;;;;;;9.32;4.13;;;;;;;13.28;100.00;102454.84;5244182;28;20107;-69
2023/10/08 06:18:08;;;;;;;11.60;4.50;;;;;;;13.39;100.00;102462.78;5246010;28;20408;-69
2023/10/08 06:20:42;;;;;;;14.50;4.63;;;;;;;13.45;100.00;102464.03;5250633;28;20405;-69
2023/10/08 06:23:18;;;;;;;10.25;4.97;;;;;;;13.53;100.00;102460.63;5249870;28;20551;-69
2023/10/08 06:25:58;;;;;;;10.48;4.47;;;;;;;13.53;100.00;102458.78;5251026;28;20028;-69
2023/10/08 06:28:29;;;;;;;14.35;5.18;;;;;;;13.57;100.00;102460.19;5246096;28;20028;-69
2023/10/08 06:30:59;;;;;;;9.93;4.35;;;;;;;13.63;100.00;102466.84;5253077;28;20035;-69
2023/10/08 06:33:33;;;;;;;18.48;5.75;;;;;;;13.70;100.00;102466.13;5249890;28;20029;-69
2023/10/08 06:36:13;;;;;;;10.75;4.20;;;;;;;13.79;100.00;102466.22;5247751;28;20024;-70
2023/10/08 06:38:48;;;;;;;11.13;4.72;;;;;;;13.95;100.00;102477.22;5251933;28;20028;-70
2023/10/08 06:41:18;;;;;;;;;;;;;;;14.12;100.00;102470.19;5245169;28;20035;-71
2023/10/08 06:44:02;;;;;;;8.55;4.60;;;;;;;14.27;100.00;102473.22;5250518;28;20365;-70
2023/10/08 06:46:32;;;;;;;13.93;4.60;;;;;;;14.42;100.00;102477.97;5249920;28;20393;-70
2023/10/08 06:49:11;;;;;;;14.88;5.28;;;;;;;14.53;100.00;102467.97;5246370;28;20040;-71
2023/10/08 06:51:43;;;;;;;11.70;4.47;;;;;;;14.65;100.00;102474.84;5248978;28;20019;-70
2023/10/08 06:54:17;;;;;;;15.95;4.60;;;;;;;14.73;100.00;102475.78;5251200;28;20027;-70
2023/10/08 06:56:51;;;;;;;12.18;4.30;;;;;;;14.86;100.00;102477.22;5252278;28;20485;-70
2023/10/08 06:59:22;;;;;;;11.15;4.88;;;;;;;14.96;100.00;102469.88;5249189;28;20033;-70
2023/10/08 07:01:53;;;;;;;11.32;4.82;;;;;;;15.06;100.00;102475.22;5253868;28;20029;-71
2023/10/08 07:04:23;;;;;;;17.80;4.78;;;;;;;15.18;100.00;102488.34;5246293;28;20055;-70
2023/10/08 07:06:54;;;;;;;10.85;4.90;;;;;;;15.33;100.00;102490.47;5252167;28;20038;-71
2023/10/08 07:09:30;;;;;;;11.75;4.97;;;;;;;15.44;100.00;102495.63;5250674;28;20069;-70
2023/10/08 07:12:05;;;;;;;10.77;5.00;;;;;;;15.59;100.00;102495.91;5252731;28;20042;-70
2023/10/08 07:14:36;;;;;;;12.45;4.68;;;;;;;15.68;100.00;102493.13;5253943;28;20024;-71
2023/10/08 07:17:08;;;;;;;10.75;5.28;;;;;;;15.83;100.00;102501.50;5249712;28;20043;-71
2023/10/08 07:19:40;;;;;;;10.50;4.45;;;;;;;15.97;100.00;102500.06;5244277;28;20029;-71
2023/10/08 07:22:21;;;;;;;13.02;5.35;;;;;;;16.12;100.00;102505.72;5245859;28;20029;-71
2023/10/08 07:24:52;;;;;;;12.20;5.57;;;;;;;16.25;100.00;102503.38;5240557;28;20074;-70
2023/10/08 07:27:29;;;;;;;13.85;5.18;;;;;;;16.36;100.00;102494.94;5244788;28;20489;-71
2023/10/08 07:30:10;;;;;;;14.75;5.22;;;;;;;16.59;100.00;102500.59;5250758;28;20047;-71
2023/10/08 07:32:40;;;;;;;16.55;5.22;;;;;;;16.92;100.00;102501.56;5251482;28;20435;-71
2023/10/08 07:35:24;;;;;;;9.90;5.05;;;;;;;17.19;100.00;102502.22;5253368;28;20031;-71
2023/10/08 07:37:55;;;;;;;11.20;5.13;;;;;;;17.46;100.00;102501.84;5251281;28;20107;-72
2023/10/08 07:40:29;;;;;;;12.60;5.88;;;;;;;17.78;100.00;102500.16;5252544;28;20029;-71
2023/10/08 07:43:08;;;;;;;13.07;4.70;;;;;;;17.99;100.00;102494.16;5245720;28;20032;-71
2023/10/08 07:45:38;;;;;;;14.20;4.97;;;;;;;18.18;100.00;102498.31;5250379;28;20639;-71
2023/10/08 07:48:09;;;;;;;11.38;5.68;;;;;;;18.27;100.00;102489.97;5247969;28;20037;-72
2023/10/08 07:50:45;;;;;;;14.85;5.00;;;;;;;18.45;100.00;102491.56;5247230;28;20081;-71
2023/10/08 07:53:17;;;;;;;10.48;5.38;;;;;;;18.64;100.00;102496.53;5250103;28;20032;-71
2023/10/08 07:55:48;;;;;;;17.45;5.50;;;;;;;18.69;100.00;102493.31;5255751;28;20089;-71
2023/10/08 07:58:19;;;;;;;12.25;5.25;;;;;;;18.81;100.00;102494.56;5252930;28;20024;-71
2023/10/08 08:00:51;;;;;;;14.23;5.30;;;;;;;19.06;100.00;102500.69;5258744;28;20490;-72
2023/10/08 08:03:21;;;;;;;9.25;4.80;;;;;;;19.30;100.00;102486.88;5251114;28;20028;-71
2023/10/08 08:05:52;;;;;;;13.60;5.28;;;;;;;19.14;100.00;102478.88;5255675;28;20539;-71
2023/10/08 08:08:26;;;;;;;15.90;5.32;;;;;;;19.31;100.00;102483.13;5254801;28;20488;-71
2023/10/08 08:11:03;;;;;;;15.52;5.10;;;;;;;19.49;100.00;102471.91;5255104;28;20027;-71
2023/10/08 08:13:34;;;;;;;13.63;5.85;;;;;;;19.74;100.00;102482.56;5252428;28;20078;-71
2023/10/08 08:16:20;;;;;;;10.35;5.13;;;;;;;20.06;100.00;102484.03;5250354;28;20032;-71
2023/10/08 08:18:57;;;;;;;11.85;4.93;;;;;;;20.17;100.00;102483.53;5252717;28;20074;-71
2023/10/08 08:21:30;;;;;;;15.93;5.15;;;;;;;20.34;100.00;102489.66;5258066;28;20032;-71
2023/10/08 08:24:07;;;;;;;11.77;5.28;;;;;;;20.74;100.00;102490.97;5254509;28;20420;-71
2023/10/08 08:26:40;;;;;;;13.20;5.38;;;;;;;20.88;100.00;102484.63;5253377;28;20500;-71
2023/10/08 08:29:15;;;;;;;12.27;5.55;;;;;;;20.68;100.00;102480.81;5255135;28;20369;-71
2023/10/08 08:31:46;;;;;;;13.52;5.63;;;;;;;20.40;100.00;102476.09;5250708;28;20021;-72
2023/10/08 08:34:19;;;;;;;15.48;5.47;;;;;;;20.60;100.00;102489.13;5257433;28;20119;-71
2023/10/08 08:36:50;;;;;;;14.68;5.65;;;;;;;20.83;100.00;102495.22;5252976;28;20128;-71
2023/10/08 08:39:32;;;;;;;17.67;5.65;;;;;;;20.97;100.00;102501.69;5252659;28;20111;-71
2023/10/08 08:42:04;;;;;;;15.20;5.88;;;;;;;20.89;100.00;102510.84;5245201;28;20046;-72
2023/10/08 08:44:45;;;;;;;14.18;5.68;;;;;;;20.89;100.00;102504.56;5250999;28;20032;-72
2023/10/08 08:47:17;;;;;;;18.80;6.05;;;;;;;20.98;100.00;102505.25;5254903;28;20055;-72
2023/10/08 08:49:48;;;;;;;18.38;6.10;;;;;;;20.78;100.00;102500.44;5252621;28;20634;-72
2023/10/08 08:52:18;;;;;;;22.90;6.28;;;;;;;20.80;100.00;102498.38;5253394;28;20034;-71
2023/10/08 08:54:49;;;;;;;17.73;5.75;;;;;;;20.86;100.00;102516.69;5249350;28;20033;-71
2023/10/08 08:57:20;;;;;;;18.88;5.65;;;;;;;20.98;100.00;102519.72;5248372;28;20568;-72
2023/10/08 08:59:54;;;;;;;19.48;6.13;;;;;;;21.06;100.00;102510.56;5255242;28;20462;-72
2023/10/08 09:02:25;;;;;;;13.55;6.47;;;;;;;21.41;100.00;102514.28;5245465;28;20025;-72
2023/10/08 09:04:55;;;;;;;22.60;6.07;;;;;;;21.72;100.00;102508.41;5248931;28;20020;-71
2023/10/08 09:07:26;;;;;;;22.08;6.30;;;;;;;21.95;100.00;102503.50;5253593;28;20025;-72
2023/10/08 09:09:57;;;;;;;12.98;5.88;;;;;;;22.00;100.00;102508.38;5252923;28;20044;-72
2023/10/08 09:12:27;;;;;;;15.85;5.95;;;;;;;21.94;100.00;102510.03;5254333;28;20533;-72
2023/10/08 09:15:04;;;;;;;18.02;6.63;;;;;;;21.98;100.00;102514.03;5247457;28;20024;-72
2023/10/08 09:17:34;;;;;;;15.05;5.72;;;;;;;21.96;100.00;102513.38;5251151;28;20032;-72
2023/10/08 09:20:07;;;;;;;16.92;5.80;;;;;;;22.05;100.00;102515.97;5245557;28;20032;-71
2023/10/08 09:22:37;;;;;;;14.48;6.10;;;;;;;22.40;100.00;102516.78;5244838;28;20111;-72
2023/10/08 09:25:08;;;;;;;18.63;6.05;;;;;;;22.76;100.00;102511.00;5249440;28;20603;-71
2023/10/08 09:27:46;;;;;;;15.68;5.80;;;;;;;23.15;100.00;102515.72;5245671;28;20032;-72
2023/10/08 09:30:19;;;;;;;21.27;6.35;;;;;;;23.21;100.00;102508.56;5243244;28;20028;-72
2023/10/08 09:32:49;;;;;;;17.15;6.07;;;;;;;23.10;100.00;102501.84;5248014;28;20509;-72
2023/10/08 09:35:22;;;;;;;15.95;5.55;;;;;;;23.11;100.00;102514.47;5248052;28;20029;-72
2023/10/08 09:37:54;;;;;;;18.17;6.15;;;;;;;22.97;100.00;102508.13;5250875;28;20035;-72
2023/10/08 09:40:25;;;;;;;18.38;5.95;;;;;;;23.14;100.00;102505.81;5249864;28;20363;-72
2023/10/08 09:42:56;;;;;;;11.07;5.60;;;;;;;23.30;100.00;102517.44;5258450;28;20114;-72
2023/10/08 09:45:29;;;;;;;18.85;6.28;;;;;;;23.46;100.00;102514.25;5248283;28;20104;-72
2023/10/08 09:48:02;;;;;;;13.25;5.95;;;;;;;23.64;100.00;102528.16;5254108;28;20028;-72
2023/10/08 09:50:38;;;;;;;18.88;5.78;;;;;;;24.03;100.00;102526.41;5251896;28;20028;-72
2023/10/08 09:53:16;;;;;;;17.27;6.60;;;;;;;24.12;100.00;102516.03;5254288;28;20032;-72
2023/10/08 09:55:54;;;;;;;19.02;6.72;;;;;;;24.04;100.00;102531.66;5241033;28;20554;-72
2023/10/08 09:58:27;;;;;;;18.45;6.35;;;;;;;23.76;100.00;102526.47;5249826;28;20123;-72
2023/10/08 10:00:58;;;;;;;15.52;5.47;;;;;;;23.93;100.00;102539.72;5250250;28;20083;-72
2023/10/08 10:03:30;;;;;;;20.25;6.93;;;;;;;24.07;100.00;102533.13;5244609;28;20020;-72
2023/10/08 10:06:00;;;;;;;16.00;6.63;;;;;;;24.18;100.00;102523.41;5242067;28;20254;-72
2023/10/08 10:08:35;;;;;;;16.98;6.20;;;;;;;24.47;100.00;102524.78;5246227;28;20032;-72
2023/10/08 10:11:06;;;;;;;16.55;6.82;;;;;;;24.68;100.00;102526.38;5240091;28;20539;-72
2023/10/08 10:13:41;;;;;;;17.65;6.93;;;;;;;24.42;100.00;102522.69;5247078;28;20425;-71
2023/10/08 10:16:13;;;;;;;20.05;7.03;;;;;;;24.43;100.00;102529.03;5246981;28;20030;-72
2023/10/08 10:18:46;;;;;;;19.48;6.45;;;;;;;24.43;100.00;102526.28;5245687;28;20111;-72
2023/10/08 10:21:17;;;;;;;19.13;6.07;;;;;;;24.62;100.00;102528.09;5244906;28;20085;-72
2023/10/08 10:23:54;;;;;;;22.52;7.53;;;;;;;24.86;100.00;102525.63;5239996;28;20267;-72
2023/10/08 10:26:33;;;;;;;12.52;5.70;;;;;;;24.62;100.00;102530.00;5248835;28;20076;-72
2023/10/08 10:29:09;;;;;;;19.67;6.95;;;;;;;24.37;100.00;102527.16;5241027;28;20082;-72
2023/10/08 10:31:47;;;;;;;17.30;6.57;;;;;;;24.23;100.00;102515.38;5240973;28;20028;-73
2023/10/08 10:34:19;;;;;;;24.50;7.63;;;;;;;24.38;100.00;102513.22;5246882;28;20079;-72
2023/10/08 10:36:56;;;;;;;20.77;6.90;;;;;;;24.41;100.00;102504.56;5243491;28;20027;-72
2023/10/08 10:39:27;;;;;;;18.00;6.45;;;;;;;24.38;100.00;102509.63;5247624;28;20085;-72
2023/10/08 10:42:04;;;;;;;18.40;7.13;;;;;;;24.36;100.00;102503.53;5245814;28;20111;-72
2023/10/08 10:44:41;;;;;;;19.73;6.43;;;;;;;24.36;100.00;102514.50;5240361;28;20085;-72
2023/10/08 10:52:32;;;;;;;22.45;7.25;;;;;;;24.56;100.00;102528.13;5242963;28;20525;-72
2023/10/08 10:57:55;;;;;;;19.27;6.30;;;;;;;24.56;100.00;102522.66;5244601;28;20063;-73
2023/10/08 11:00:47;;;;;;;19.45;7.00;;;;;;;24.74;100.00;102522.72;5245956;28;20020;-73
2023/10/08 11:03:17;;;;;;;21.35;7.53;;;;;;;24.92;100.00;102520.09;5240038;28;20509;-73
2023/10/08 11:05:54;;;;;;;19.88;6.68;;;;;;;24.97;100.00;102519.44;5247398;28;20225;-73
2023/10/08 11:08:34;;;;;;;18.45;6.15;;;;;;;24.97;100.00;102519.44;5247831;28;20031;-73
2023/10/08 11:11:06;;;;;;;13.57;5.82;;;;;;;25.01;100.00;102510.53;5245651;28;20020;-73
2023/10/08 11:13:38;;;;;;;13.82;6.43;;;;;;;25.17;100.00;102511.06;5247814;28;20154;-73
2023/10/08 11:16:09;;;;;;;23.52;7.10;;;;;;;24.91;100.00;102498.38;5246483;28;20035;-72
2023/10/08 11:18:47;;;;;;;16.05;6.28;;;;;;;25.04;100.00;102501.84;5250448;28;20342;-73
2023/10/08 11:21:22;;;;;;;17.55;6.25;;;;;;;24.87;100.00;102495.22;5248166;28;20013;-73
2023/10/08 11:23:53;;;;;;;15.90;6.22;;;;;;;24.95;100.00;102497.69;5248604;28;20044;-73
2023/10/08 11:26:35;;;;;;;16.70;6.18;;;;;;;24.90;100.00;102494.78;5248623;28;20036;-72
2023/10/08 11:29:13;;;;;;;18.98;6.55;;;;;;;24.90;100.00;102489.28;5239751;28;20020;-73
2023/10/08 11:31:44;;;;;;;15.27;5.60;;;;;;;24.62;100.00;102488.84;5246451;28;20031;-73
2023/10/08 11:34:15;;;;;;;24.10;6.43;;;;;;;24.68;100.00;102479.72;5246836;28;20016;-73
2023/10/08 11:36:53;;;;;;;25.25;6.95;;;;;;;24.88;100.00;102476.84;5252176;28;20379;-73
2023/10/08 11:39:23;;;;;;;21.73;6.18;;;;;;;24.99;100.00;102476.94;5252203;28;20036;-73
2023/10/08 11:41:57;;;;;;;19.20;6.13;;;;;;;25.03;100.00;102467.22;5259185;28;20542;-73
2023/10/08 11:44:30;;;;;;;20.33;6.70;;;;;;;25.18;100.00;102474.31;5248869;28;20111;-73
2023/10/08 11:47:04;;;;;;;20.95;6.97;;;;;;;25.04;100.00;102462.56;5257532;28;20377;-72
2023/10/08 11:49:36;;;;;;;15.75;6.03;;;;;;;25.11;100.00;102468.03;5241708;28;20063;-73
2023/10/08 11:52:07;;;;;;;21.75;6.40;;;;;;;25.17;100.00;102469.88;5254720;28;20028;-72
2023/10/08 11:54:42;;;;;;;15.48;6.07;;;;;;;24.96;100.00;102466.44;5250860;28;20074;-73
2023/10/08 11:57:13;;;;;;;17.65;6.05;;;;;;;25.14;100.00;102465.66;5251480;28;20497;-73
2023/10/08 11:59:43;;;;;;;20.88;6.22;;;;;;;25.33;100.00;102466.56;5248419;28;20107;-73
2023/10/08 12:02:16;;;;;;;18.52;7.40;;;;;;;25.44;100.00;102456.72;5250730;28;20470;-73
2023/10/08 12:04:47;;;;;;;19.17;6.20;;;;;;;25.46;100.00;102457.38;5250066;28;20108;-72
2023/10/08 12:07:17;;;;;;;22.00;6.63;;;;;;;25.52;100.00;102470.19;5250485;28;20472;-73
2023/10/08 12:09:48;;;;;;;15.60;6.00;;;;;;;25.61;100.00;102463.34;5251972;28;20024;-72
2023/10/08 12:12:22;;;;;;;21.20;6.00;;;;;;;25.61;100.00;102468.00;5255249;28;20016;-72
2023/10/08 12:14:54;;;;;;;20.02;6.65;;;;;;;25.44;100.00;102465.81;5245661;28;20027;-72
2023/10/08 12:17:37;;;;;;;16.45;5.88;;;;;;;25.43;100.00;102463.31;5248827;28;20471;-73
2023/10/08 12:20:22;;;;;;;16.60;6.75;;;;;;;25.65;100.00;102449.97;5256215;28;20477;-73
2023/10/08 12:22:53;;;;;;;23.13;7.00;;;;;;;25.54;100.00;102446.91;5249423;28;20544;-73
2023/10/08 12:25:23;;;;;;;10.73;5.30;;;;;;;25.49;100.00;102454.16;5251695;28;20036;-72